Zolotoj, Russia
Current Conditions -  °F | °C
As of 1:00 PM on Sunday 21 Dec 2014 (Local Time) from UHSS Reporting Station
Snow Showers Snow Showers  
Wind Chill:   Ceiling: 2000
Heat Index: 19°   Visibility: 5mi
Dew Point: 10°   Wind: 11mph
Humidity: 68%   Direction: 300°WNW
Pressure: 29.21"   Gusts: 22mph
Location:  47.32°N, 138.98°E
Report Text: UHSS 210300Z 30005G10MPS 8000 -SHSN BKN020CB M07/M12 Q0989 RMKMT OBSC QFE740/0987
Loading
Personal Weather Stations






























Interactive Weather Map New forecast layout! Learn more

10-Day Weather Forecast

Advertisements
Track Severe Weather on mobile